sensor_id;sensor_type;location;lat;lon;timestamp;P1;durP1;ratioP1;P2;durP2;ratioP2
6282;SDS011;3174;53.486;9.568;2023-02-10T00:02:02;29.40;;;12.03;;
6282;SDS011;3174;53.486;9.568;2023-02-10T00:04:30;28.37;;;10.90;;
6282;SDS011;3174;53.486;9.568;2023-02-10T00:06:57;27.97;;;12.27;;
6282;SDS011;3174;53.486;9.568;2023-02-10T00:09:25;29.80;;;12.67;;
6282;SDS011;3174;53.486;9.568;2023-02-10T00:11:53;23.17;;;11.80;;
6282;SDS011;3174;53.486;9.568;2023-02-10T00:14:26;33.47;;;11.00;;
6282;SDS011;3174;53.486;9.568;2023-02-10T00:16:55;37.93;;;12.93;;
6282;SDS011;3174;53.486;9.568;2023-02-10T00:19:25;29.00;;;11.23;;
6282;SDS011;3174;53.486;9.568;2023-02-10T00:21:53;34.87;;;12.20;;
6282;SDS011;3174;53.486;9.568;2023-02-10T00:24:21;30.30;;;10.90;;
6282;SDS011;3174;53.486;9.568;2023-02-10T00:26:49;27.37;;;12.10;;
6282;SDS011;3174;53.486;9.568;2023-02-10T00:29:18;26.17;;;11.73;;
6282;SDS011;3174;53.486;9.568;2023-02-10T00:31:46;26.73;;;11.00;;
6282;SDS011;3174;53.486;9.568;2023-02-10T00:34:15;34.00;;;11.67;;
6282;SDS011;3174;53.486;9.568;2023-02-10T00:36:45;31.07;;;11.53;;
6282;SDS011;3174;53.486;9.568;2023-02-10T00:39:13;29.23;;;10.77;;
6282;SDS011;3174;53.486;9.568;2023-02-10T00:41:41;25.00;;;11.13;;
6282;SDS011;3174;53.486;9.568;2023-02-10T00:44:09;26.07;;;11.23;;
6282;SDS011;3174;53.486;9.568;2023-02-10T00:46:37;29.90;;;11.60;;
6282;SDS011;3174;53.486;9.568;2023-02-10T00:49:05;27.63;;;10.67;;
6282;SDS011;3174;53.486;9.568;2023-02-10T00:51:33;29.90;;;11.37;;
6282;SDS011;3174;53.486;9.568;2023-02-10T00:54:02;21.83;;;10.40;;
6282;SDS011;3174;53.486;9.568;2023-02-10T00:56:30;29.67;;;10.93;;
6282;SDS011;3174;53.486;9.568;2023-02-10T00:58:58;23.30;;;10.10;;
6282;SDS011;3174;53.486;9.568;2023-02-10T01:01:26;21.43;;;9.07;;
6282;SDS011;3174;53.486;9.568;2023-02-10T01:03:54;19.47;;;8.73;;
6282;SDS011;3174;53.486;9.568;2023-02-10T01:06:22;27.50;;;10.13;;
6282;SDS011;3174;53.486;9.568;2023-02-10T01:08:50;24.97;;;9.27;;
6282;SDS011;3174;53.486;9.568;2023-02-10T01:11:20;21.93;;;9.73;;
6282;SDS011;3174;53.486;9.568;2023-02-10T01:13:47;20.43;;;9.43;;
6282;SDS011;3174;53.486;9.568;2023-02-10T01:16:15;25.13;;;9.83;;
6282;SDS011;3174;53.486;9.568;2023-02-10T01:18:44;24.23;;;9.40;;
6282;SDS011;3174;53.486;9.568;2023-02-10T01:21:13;20.30;;;9.07;;
6282;SDS011;3174;53.486;9.568;2023-02-10T01:23:42;29.80;;;9.80;;
6282;SDS011;3174;53.486;9.568;2023-02-10T01:26:10;34.73;;;10.33;;
6282;SDS011;3174;53.486;9.568;2023-02-10T01:28:39;23.20;;;9.10;;
6282;SDS011;3174;53.486;9.568;2023-02-10T01:31:08;20.23;;;8.57;;
6282;SDS011;3174;53.486;9.568;2023-02-10T01:33:37;26.77;;;9.93;;
6282;SDS011;3174;53.486;9.568;2023-02-10T01:36:05;28.70;;;9.30;;
6282;SDS011;3174;53.486;9.568;2023-02-10T01:38:34;25.20;;;9.10;;
6282;SDS011;3174;53.486;9.568;2023-02-10T01:41:03;25.77;;;9.73;;
6282;SDS011;3174;53.486;9.568;2023-02-10T01:43:31;19.57;;;8.43;;
6282;SDS011;3174;53.486;9.568;2023-02-10T01:46:01;30.27;;;9.57;;
6282;SDS011;3174;53.486;9.568;2023-02-10T01:48:29;26.93;;;8.53;;
6282;SDS011;3174;53.486;9.568;2023-02-10T01:50:58;22.23;;;9.13;;
6282;SDS011;3174;53.486;9.568;2023-02-10T01:53:28;22.10;;;8.13;;
6282;SDS011;3174;53.486;9.568;2023-02-10T01:55:57;25.20;;;9.83;;
6282;SDS011;3174;53.486;9.568;2023-02-10T01:58:26;21.00;;;8.47;;
6282;SDS011;3174;53.486;9.568;2023-02-10T02:00:56;26.60;;;9.50;;
6282;SDS011;3174;53.486;9.568;2023-02-10T02:03:26;23.47;;;9.23;;
6282;SDS011;3174;53.486;9.568;2023-02-10T02:05:53;22.13;;;9.20;;
6282;SDS011;3174;53.486;9.568;2023-02-10T02:08:22;22.70;;;9.60;;
6282;SDS011;3174;53.486;9.568;2023-02-10T02:10:56;23.70;;;9.33;;
6282;SDS011;3174;53.486;9.568;2023-02-10T02:13:31;20.03;;;9.73;;
6282;SDS011;3174;53.486;9.568;2023-02-10T02:16:06;20.00;;;9.50;;
6282;SDS011;3174;53.486;9.568;2023-02-10T02:18:41;19.60;;;9.63;;
6282;SDS011;3174;53.486;9.568;2023-02-10T02:24:34;22.47;;;10.50;;
6282;SDS011;3174;53.486;9.568;2023-02-10T02:27:22;22.47;;;9.83;;
6282;SDS011;3174;53.486;9.568;2023-02-10T02:32:58;25.00;;;11.37;;
6282;SDS011;3174;53.486;9.568;2023-02-10T02:35:30;22.80;;;10.07;;
6282;SDS011;3174;53.486;9.568;2023-02-10T02:38:01;27.83;;;11.80;;
6282;SDS011;3174;53.486;9.568;2023-02-10T02:40:29;32.47;;;10.97;;
6282;SDS011;3174;53.486;9.568;2023-02-10T02:42:57;27.77;;;11.97;;
6282;SDS011;3174;53.486;9.568;2023-02-10T02:45:26;23.23;;;9.60;;
6282;SDS011;3174;53.486;9.568;2023-02-10T02:48:02;30.17;;;12.53;;
6282;SDS011;3174;53.486;9.568;2023-02-10T02:50:35;24.23;;;10.90;;
6282;SDS011;3174;53.486;9.568;2023-02-10T02:53:11;30.30;;;10.80;;
6282;SDS011;3174;53.486;9.568;2023-02-10T02:55:52;21.77;;;10.20;;
6282;SDS011;3174;53.486;9.568;2023-02-10T02:58:28;29.03;;;11.30;;
6282;SDS011;3174;53.486;9.568;2023-02-10T03:01:02;28.90;;;11.37;;
6282;SDS011;3174;53.486;9.568;2023-02-10T03:03:34;28.63;;;10.93;;
6282;SDS011;3174;53.486;9.568;2023-02-10T03:06:03;20.30;;;9.33;;
6282;SDS011;3174;53.486;9.568;2023-02-10T03:08:32;24.27;;;11.07;;
6282;SDS011;3174;53.486;9.568;2023-02-10T03:11:01;36.17;;;11.57;;
6282;SDS011;3174;53.486;9.568;2023-02-10T03:13:28;29.90;;;10.83;;
6282;SDS011;3174;53.486;9.568;2023-02-10T03:15:57;25.13;;;10.00;;
6282;SDS011;3174;53.486;9.568;2023-02-10T03:18:25;29.73;;;11.10;;
6282;SDS011;3174;53.486;9.568;2023-02-10T03:20:55;25.10;;;10.73;;
6282;SDS011;3174;53.486;9.568;2023-02-10T03:23:23;22.00;;;10.20;;
6282;SDS011;3174;53.486;9.568;2023-02-10T03:25:51;30.37;;;11.53;;
6282;SDS011;3174;53.486;9.568;2023-02-10T03:28:18;28.87;;;10.83;;
6282;SDS011;3174;53.486;9.568;2023-02-10T03:30:46;15.50;;;8.27;;
6282;SDS011;3174;53.486;9.568;2023-02-10T03:33:16;36.77;;;10.83;;
6282;SDS011;3174;53.486;9.568;2023-02-10T03:35:44;22.53;;;9.30;;
6282;SDS011;3174;53.486;9.568;2023-02-10T03:38:14;21.90;;;10.47;;
6282;SDS011;3174;53.486;9.568;2023-02-10T03:40:42;23.40;;;10.10;;
6282;SDS011;3174;53.486;9.568;2023-02-10T03:43:10;29.67;;;10.57;;
6282;SDS011;3174;53.486;9.568;2023-02-10T03:45:38;23.83;;;10.07;;
6282;SDS011;3174;53.486;9.568;2023-02-10T03:48:07;22.50;;;10.33;;
6282;SDS011;3174;53.486;9.568;2023-02-10T03:50:35;27.20;;;11.17;;
6282;SDS011;3174;53.486;9.568;2023-02-10T03:53:03;27.57;;;11.17;;
6282;SDS011;3174;53.486;9.568;2023-02-10T03:55:33;30.57;;;10.20;;
6282;SDS011;3174;53.486;9.568;2023-02-10T03:58:01;27.90;;;10.80;;
6282;SDS011;3174;53.486;9.568;2023-02-10T04:00:29;19.00;;;10.70;;
6282;SDS011;3174;53.486;9.568;2023-02-10T04:02:57;22.17;;;10.30;;
6282;SDS011;3174;53.486;9.568;2023-02-10T04:05:25;28.53;;;11.50;;
6282;SDS011;3174;53.486;9.568;2023-02-10T04:07:53;19.53;;;9.80;;
6282;SDS011;3174;53.486;9.568;2023-02-10T04:10:21;29.90;;;10.13;;
6282;SDS011;3174;53.486;9.568;2023-02-10T04:12:51;21.13;;;9.73;;
6282;SDS011;3174;53.486;9.568;2023-02-10T04:15:19;32.77;;;10.83;;
6282;SDS011;3174;53.486;9.568;2023-02-10T04:17:46;26.30;;;9.90;;
6282;SDS011;3174;53.486;9.568;2023-02-10T04:20:14;24.50;;;10.73;;
6282;SDS011;3174;53.486;9.568;2023-02-10T04:22:43;26.30;;;10.20;;
6282;SDS011;3174;53.486;9.568;2023-02-10T04:25:11;20.80;;;9.80;;
6282;SDS011;3174;53.486;9.568;2023-02-10T04:27:39;25.03;;;10.80;;
6282;SDS011;3174;53.486;9.568;2023-02-10T04:30:09;23.10;;;10.47;;
6282;SDS011;3174;53.486;9.568;2023-02-10T04:32:37;27.93;;;10.57;;
6282;SDS011;3174;53.486;9.568;2023-02-10T04:35:05;25.00;;;10.57;;
6282;SDS011;3174;53.486;9.568;2023-02-10T04:37:34;24.97;;;10.17;;
6282;SDS011;3174;53.486;9.568;2023-02-10T04:40:02;24.70;;;10.10;;
6282;SDS011;3174;53.486;9.568;2023-02-10T04:42:30;22.07;;;9.63;;
6282;SDS011;3174;53.486;9.568;2023-02-10T04:44:58;27.73;;;10.33;;
6282;SDS011;3174;53.486;9.568;2023-02-10T04:47:28;21.73;;;10.30;;
6282;SDS011;3174;53.486;9.568;2023-02-10T04:49:56;16.73;;;8.63;;
6282;SDS011;3174;53.486;9.568;2023-02-10T04:52:24;22.60;;;8.83;;
6282;SDS011;3174;53.486;9.568;2023-02-10T04:54:52;30.67;;;10.83;;
6282;SDS011;3174;53.486;9.568;2023-02-10T04:57:20;28.70;;;10.53;;
6282;SDS011;3174;53.486;9.568;2023-02-10T04:59:48;27.10;;;9.30;;
6282;SDS011;3174;53.486;9.568;2023-02-10T05:02:16;21.10;;;10.27;;
6282;SDS011;3174;53.486;9.568;2023-02-10T05:04:45;30.87;;;11.83;;
6282;SDS011;3174;53.486;9.568;2023-02-10T05:07:13;27.87;;;11.27;;
6282;SDS011;3174;53.486;9.568;2023-02-10T05:09:41;28.40;;;10.57;;
6282;SDS011;3174;53.486;9.568;2023-02-10T05:12:09;47.70;;;18.87;;
6282;SDS011;3174;53.486;9.568;2023-02-10T05:14:37;25.67;;;12.03;;
6282;SDS011;3174;53.486;9.568;2023-02-10T05:17:05;27.97;;;13.40;;
6282;SDS011;3174;53.486;9.568;2023-02-10T05:19:33;33.40;;;11.63;;
6282;SDS011;3174;53.486;9.568;2023-02-10T05:22:02;27.73;;;10.00;;
6282;SDS011;3174;53.486;9.568;2023-02-10T05:24:30;20.70;;;9.20;;
6282;SDS011;3174;53.486;9.568;2023-02-10T05:26:58;19.57;;;9.53;;
6282;SDS011;3174;53.486;9.568;2023-02-10T05:29:26;25.87;;;10.40;;
6282;SDS011;3174;53.486;9.568;2023-02-10T05:31:54;20.03;;;9.87;;
6282;SDS011;3174;53.486;9.568;2023-02-10T05:34:22;21.70;;;8.80;;
6282;SDS011;3174;53.486;9.568;2023-02-10T05:36:50;25.10;;;10.33;;
6282;SDS011;3174;53.486;9.568;2023-02-10T05:39:19;19.90;;;9.47;;
6282;SDS011;3174;53.486;9.568;2023-02-10T05:41:50;29.83;;;10.17;;
6282;SDS011;3174;53.486;9.568;2023-02-10T05:44:18;27.33;;;10.77;;
6282;SDS011;3174;53.486;9.568;2023-02-10T05:46:46;27.27;;;10.33;;
6282;SDS011;3174;53.486;9.568;2023-02-10T05:49:15;20.87;;;10.07;;
6282;SDS011;3174;53.486;9.568;2023-02-10T05:51:43;28.30;;;10.90;;
6282;SDS011;3174;53.486;9.568;2023-02-10T05:54:11;25.20;;;11.13;;
6282;SDS011;3174;53.486;9.568;2023-02-10T05:56:41;24.37;;;11.57;;
6282;SDS011;3174;53.486;9.568;2023-02-10T05:59:10;27.80;;;9.70;;
6282;SDS011;3174;53.486;9.568;2023-02-10T06:01:39;22.97;;;10.40;;
6282;SDS011;3174;53.486;9.568;2023-02-10T06:04:06;23.37;;;9.40;;
6282;SDS011;3174;53.486;9.568;2023-02-10T06:06:34;23.33;;;9.83;;
6282;SDS011;3174;53.486;9.568;2023-02-10T06:09:02;21.70;;;9.40;;
6282;SDS011;3174;53.486;9.568;2023-02-10T06:11:30;23.50;;;9.30;;
6282;SDS011;3174;53.486;9.568;2023-02-10T06:14:00;22.43;;;10.27;;
6282;SDS011;3174;53.486;9.568;2023-02-10T06:16:28;21.57;;;9.57;;
6282;SDS011;3174;53.486;9.568;2023-02-10T06:18:56;22.30;;;10.17;;
6282;SDS011;3174;53.486;9.568;2023-02-10T06:21:24;28.87;;;10.47;;
6282;SDS011;3174;53.486;9.568;2023-02-10T06:23:53;28.47;;;11.47;;
6282;SDS011;3174;53.486;9.568;2023-02-10T06:26:21;22.93;;;9.93;;
6282;SDS011;3174;53.486;9.568;2023-02-10T06:28:49;26.90;;;11.13;;
6282;SDS011;3174;53.486;9.568;2023-02-10T06:31:18;24.30;;;10.17;;
6282;SDS011;3174;53.486;9.568;2023-02-10T06:33:46;24.47;;;10.43;;
6282;SDS011;3174;53.486;9.568;2023-02-10T06:36:14;28.43;;;10.73;;
6282;SDS011;3174;53.486;9.568;2023-02-10T06:38:42;21.90;;;9.97;;
6282;SDS011;3174;53.486;9.568;2023-02-10T06:41:10;26.27;;;9.80;;
6282;SDS011;3174;53.486;9.568;2023-02-10T06:43:38;23.60;;;9.53;;
6282;SDS011;3174;53.486;9.568;2023-02-10T06:46:06;28.93;;;11.87;;
6282;SDS011;3174;53.486;9.568;2023-02-10T06:48:35;25.77;;;10.57;;
6282;SDS011;3174;53.486;9.568;2023-02-10T06:51:03;29.07;;;11.37;;
6282;SDS011;3174;53.486;9.568;2023-02-10T06:53:32;26.03;;;10.47;;
6282;SDS011;3174;53.486;9.568;2023-02-10T06:56:00;29.80;;;10.03;;
6282;SDS011;3174;53.486;9.568;2023-02-10T06:58:27;20.80;;;10.63;;
6282;SDS011;3174;53.486;9.568;2023-02-10T07:00:55;28.07;;;11.97;;
6282;SDS011;3174;53.486;9.568;2023-02-10T07:03:25;25.83;;;11.17;;
6282;SDS011;3174;53.486;9.568;2023-02-10T07:05:54;29.37;;;12.17;;
6282;SDS011;3174;53.486;9.568;2023-02-10T07:08:22;28.23;;;11.57;;
6282;SDS011;3174;53.486;9.568;2023-02-10T07:10:50;28.60;;;12.33;;
6282;SDS011;3174;53.486;9.568;2023-02-10T07:13:18;22.13;;;11.70;;
6282;SDS011;3174;53.486;9.568;2023-02-10T07:15:46;37.17;;;15.80;;
6282;SDS011;3174;53.486;9.568;2023-02-10T07:18:14;32.43;;;12.50;;
6282;SDS011;3174;53.486;9.568;2023-02-10T07:20:42;28.50;;;11.50;;
6282;SDS011;3174;53.486;9.568;2023-02-10T07:23:11;24.67;;;10.53;;
6282;SDS011;3174;53.486;9.568;2023-02-10T07:25:42;29.07;;;11.07;;
6282;SDS011;3174;53.486;9.568;2023-02-10T07:28:10;29.60;;;10.37;;
6282;SDS011;3174;53.486;9.568;2023-02-10T07:30:38;25.07;;;10.47;;
6282;SDS011;3174;53.486;9.568;2023-02-10T07:33:07;26.73;;;11.33;;
6282;SDS011;3174;53.486;9.568;2023-02-10T07:35:35;27.67;;;12.07;;
6282;SDS011;3174;53.486;9.568;2023-02-10T07:38:03;26.47;;;11.43;;
6282;SDS011;3174;53.486;9.568;2023-02-10T07:40:32;25.27;;;11.80;;
6282;SDS011;3174;53.486;9.568;2023-02-10T07:43:00;32.60;;;10.97;;
6282;SDS011;3174;53.486;9.568;2023-02-10T07:45:28;29.33;;;11.30;;
6282;SDS011;3174;53.486;9.568;2023-02-10T07:47:57;24.87;;;10.57;;
6282;SDS011;3174;53.486;9.568;2023-02-10T07:50:25;26.17;;;10.87;;
6282;SDS011;3174;53.486;9.568;2023-02-10T07:52:57;20.83;;;9.93;;
6282;SDS011;3174;53.486;9.568;2023-02-10T07:55:25;20.70;;;9.37;;
6282;SDS011;3174;53.486;9.568;2023-02-10T07:57:55;23.97;;;10.93;;
6282;SDS011;3174;53.486;9.568;2023-02-10T08:00:22;24.77;;;10.90;;
6282;SDS011;3174;53.486;9.568;2023-02-10T08:02:50;25.63;;;11.50;;
6282;SDS011;3174;53.486;9.568;2023-02-10T08:05:18;32.03;;;11.27;;
6282;SDS011;3174;53.486;9.568;2023-02-10T08:07:48;27.30;;;10.50;;
6282;SDS011;3174;53.486;9.568;2023-02-10T08:10:16;23.70;;;10.80;;
6282;SDS011;3174;53.486;9.568;2023-02-10T08:12:44;27.70;;;10.23;;
6282;SDS011;3174;53.486;9.568;2023-02-10T08:15:14;26.10;;;11.07;;
6282;SDS011;3174;53.486;9.568;2023-02-10T08:17:43;29.03;;;11.27;;
6282;SDS011;3174;53.486;9.568;2023-02-10T08:20:11;46.17;;;17.17;;
6282;SDS011;3174;53.486;9.568;2023-02-10T08:22:39;45.83;;;19.63;;
6282;SDS011;3174;53.486;9.568;2023-02-10T08:25:07;28.47;;;13.33;;
6282;SDS011;3174;53.486;9.568;2023-02-10T08:27:35;21.43;;;12.17;;
6282;SDS011;3174;53.486;9.568;2023-02-10T08:30:03;27.00;;;11.53;;
6282;SDS011;3174;53.486;9.568;2023-02-10T08:32:33;26.63;;;11.23;;
6282;SDS011;3174;53.486;9.568;2023-02-10T08:35:01;22.97;;;10.67;;
6282;SDS011;3174;53.486;9.568;2023-02-10T08:37:29;25.73;;;10.67;;
6282;SDS011;3174;53.486;9.568;2023-02-10T08:39:57;25.47;;;10.33;;
6282;SDS011;3174;53.486;9.568;2023-02-10T08:42:25;26.67;;;10.63;;
6282;SDS011;3174;53.486;9.568;2023-02-10T08:44:53;23.53;;;11.73;;
6282;SDS011;3174;53.486;9.568;2023-02-10T08:47:21;27.67;;;10.43;;
6282;SDS011;3174;53.486;9.568;2023-02-10T08:49:51;22.70;;;10.23;;
6282;SDS011;3174;53.486;9.568;2023-02-10T08:52:19;22.83;;;10.10;;
6282;SDS011;3174;53.486;9.568;2023-02-10T08:54:47;30.27;;;10.93;;
6282;SDS011;3174;53.486;9.568;2023-02-10T08:57:15;30.17;;;11.70;;
6282;SDS011;3174;53.486;9.568;2023-02-10T08:59:43;21.90;;;10.60;;
6282;SDS011;3174;53.486;9.568;2023-02-10T09:02:11;29.17;;;10.17;;
6282;SDS011;3174;53.486;9.568;2023-02-10T09:04:39;27.20;;;10.60;;
6282;SDS011;3174;53.486;9.568;2023-02-10T09:07:09;18.80;;;9.90;;
6282;SDS011;3174;53.486;9.568;2023-02-10T09:09:40;27.50;;;10.40;;
6282;SDS011;3174;53.486;9.568;2023-02-10T09:12:10;23.97;;;9.73;;
6282;SDS011;3174;53.486;9.568;2023-02-10T09:14:38;23.33;;;10.30;;
6282;SDS011;3174;53.486;9.568;2023-02-10T09:17:07;24.70;;;10.80;;
6282;SDS011;3174;53.486;9.568;2023-02-10T09:19:35;21.23;;;10.50;;
6282;SDS011;3174;53.486;9.568;2023-02-10T09:22:03;29.37;;;10.87;;
6282;SDS011;3174;53.486;9.568;2023-02-10T09:24:33;24.40;;;10.57;;
6282;SDS011;3174;53.486;9.568;2023-02-10T09:27:01;30.50;;;12.90;;
6282;SDS011;3174;53.486;9.568;2023-02-10T09:29:29;26.80;;;10.77;;
6282;SDS011;3174;53.486;9.568;2023-02-10T09:31:57;24.10;;;10.67;;
6282;SDS011;3174;53.486;9.568;2023-02-10T09:34:25;25.53;;;10.40;;
6282;SDS011;3174;53.486;9.568;2023-02-10T09:36:56;35.27;;;10.87;;
6282;SDS011;3174;53.486;9.568;2023-02-10T09:39:27;28.70;;;10.27;;
6282;SDS011;3174;53.486;9.568;2023-02-10T09:41:57;23.33;;;10.00;;
6282;SDS011;3174;53.486;9.568;2023-02-10T09:44:31;24.23;;;10.87;;
6282;SDS011;3174;53.486;9.568;2023-02-10T09:47:07;22.10;;;10.43;;
6282;SDS011;3174;53.486;9.568;2023-02-10T09:49:45;27.13;;;11.00;;
6282;SDS011;3174;53.486;9.568;2023-02-10T09:52:27;24.67;;;10.37;;
6282;SDS011;3174;53.486;9.568;2023-02-10T09:54:59;25.40;;;12.53;;
6282;SDS011;3174;53.486;9.568;2023-02-10T09:57:32;23.87;;;10.53;;
6282;SDS011;3174;53.486;9.568;2023-02-10T10:00:03;27.33;;;12.10;;
6282;SDS011;3174;53.486;9.568;2023-02-10T10:02:33;25.63;;;11.10;;
6282;SDS011;3174;53.486;9.568;2023-02-10T10:05:04;25.40;;;11.20;;
6282;SDS011;3174;53.486;9.568;2023-02-10T10:07:41;22.00;;;10.83;;
6282;SDS011;3174;53.486;9.568;2023-02-10T10:10:13;25.73;;;12.27;;
6282;SDS011;3174;53.486;9.568;2023-02-10T10:12:43;21.13;;;11.20;;
6282;SDS011;3174;53.486;9.568;2023-02-10T10:15:14;18.93;;;9.13;;
6282;SDS011;3174;53.486;9.568;2023-02-10T10:17:52;25.37;;;10.00;;
6282;SDS011;3174;53.486;9.568;2023-02-10T10:20:43;19.37;;;9.47;;
6282;SDS011;3174;53.486;9.568;2023-02-10T10:26:09;22.77;;;11.23;;
6282;SDS011;3174;53.486;9.568;2023-02-10T10:29:01;19.97;;;9.83;;
6282;SDS011;3174;53.486;9.568;2023-02-10T10:31:35;23.63;;;10.77;;
6282;SDS011;3174;53.486;9.568;2023-02-10T10:34:08;18.90;;;8.53;;
6282;SDS011;3174;53.486;9.568;2023-02-10T10:36:41;23.03;;;10.07;;
6282;SDS011;3174;53.486;9.568;2023-02-10T10:39:11;20.07;;;9.13;;
6282;SDS011;3174;53.486;9.568;2023-02-10T10:41:41;26.00;;;9.67;;
6282;SDS011;3174;53.486;9.568;2023-02-10T10:44:14;20.40;;;9.57;;
6282;SDS011;3174;53.486;9.568;2023-02-10T10:46:44;22.07;;;9.50;;
6282;SDS011;3174;53.486;9.568;2023-02-10T10:49:15;28.23;;;9.83;;
6282;SDS011;3174;53.486;9.568;2023-02-10T10:51:43;31.37;;;9.93;;
6282;SDS011;3174;53.486;9.568;2023-02-10T10:54:14;16.40;;;8.50;;
6282;SDS011;3174;53.486;9.568;2023-02-10T10:56:45;22.73;;;9.43;;
6282;SDS011;3174;53.486;9.568;2023-02-10T10:59:18;21.77;;;8.67;;
6282;SDS011;3174;53.486;9.568;2023-02-10T11:01:48;18.40;;;7.97;;
6282;SDS011;3174;53.486;9.568;2023-02-10T11:04:19;18.13;;;8.67;;
6282;SDS011;3174;53.486;9.568;2023-02-10T11:06:49;19.37;;;8.30;;
6282;SDS011;3174;53.486;9.568;2023-02-10T11:09:21;15.07;;;7.63;;
6282;SDS011;3174;53.486;9.568;2023-02-10T11:11:51;20.73;;;8.40;;
6282;SDS011;3174;53.486;9.568;2023-02-10T11:14:22;20.07;;;8.97;;
6282;SDS011;3174;53.486;9.568;2023-02-10T11:16:53;23.60;;;8.37;;
6282;SDS011;3174;53.486;9.568;2023-02-10T11:19:23;20.50;;;8.40;;
6282;SDS011;3174;53.486;9.568;2023-02-10T11:21:54;18.53;;;7.27;;
6282;SDS011;3174;53.486;9.568;2023-02-10T11:24:23;16.50;;;7.63;;
6282;SDS011;3174;53.486;9.568;2023-02-10T11:26:56;15.27;;;7.27;;
6282;SDS011;3174;53.486;9.568;2023-02-10T11:29:28;14.93;;;6.93;;
6282;SDS011;3174;53.486;9.568;2023-02-10T11:31:58;20.10;;;6.97;;
6282;SDS011;3174;53.486;9.568;2023-02-10T11:34:27;17.37;;;6.63;;
6282;SDS011;3174;53.486;9.568;2023-02-10T11:36:57;19.83;;;7.27;;
6282;SDS011;3174;53.486;9.568;2023-02-10T11:39:27;14.07;;;6.30;;
6282;SDS011;3174;53.486;9.568;2023-02-10T11:41:57;22.63;;;7.57;;
6282;SDS011;3174;53.486;9.568;2023-02-10T11:44:36;16.37;;;6.40;;
6282;SDS011;3174;53.486;9.568;2023-02-10T11:47:12;17.47;;;7.23;;
6282;SDS011;3174;53.486;9.568;2023-02-10T11:49:42;19.07;;;6.50;;
6282;SDS011;3174;53.486;9.568;2023-02-10T11:52:11;19.60;;;7.23;;
6282;SDS011;3174;53.486;9.568;2023-02-10T11:54:40;15.33;;;6.57;;
6282;SDS011;3174;53.486;9.568;2023-02-10T11:57:21;12.50;;;5.93;;
6282;SDS011;3174;53.486;9.568;2023-02-10T12:00:16;13.70;;;6.63;;
6282;SDS011;3174;53.486;9.568;2023-02-10T12:02:59;12.30;;;6.73;;
6282;SDS011;3174;53.486;9.568;2023-02-10T12:05:47;16.70;;;5.70;;
6282;SDS011;3174;53.486;9.568;2023-02-10T12:08:20;14.57;;;6.90;;
6282;SDS011;3174;53.486;9.568;2023-02-10T12:10:54;13.30;;;5.97;;
6282;SDS011;3174;53.486;9.568;2023-02-10T12:13:26;16.23;;;6.53;;
6282;SDS011;3174;53.486;9.568;2023-02-10T12:16:02;11.23;;;5.60;;
6282;SDS011;3174;53.486;9.568;2023-02-10T12:18:49;9.10;;;4.73;;
6282;SDS011;3174;53.486;9.568;2023-02-10T12:24:19;12.63;;;5.27;;
6282;SDS011;3174;53.486;9.568;2023-02-10T12:26:53;14.03;;;5.40;;
6282;SDS011;3174;53.486;9.568;2023-02-10T12:29:27;14.63;;;5.40;;
6282;SDS011;3174;53.486;9.568;2023-02-10T12:32:02;12.33;;;5.20;;
6282;SDS011;3174;53.486;9.568;2023-02-10T12:34:45;11.80;;;5.93;;
6282;SDS011;3174;53.486;9.568;2023-02-10T12:37:23;12.40;;;4.80;;
6282;SDS011;3174;53.486;9.568;2023-02-10T12:39:59;12.43;;;5.20;;
6282;SDS011;3174;53.486;9.568;2023-02-10T12:42:37;9.93;;;4.57;;
6282;SDS011;3174;53.486;9.568;2023-02-10T12:45:13;10.47;;;4.60;;
6282;SDS011;3174;53.486;9.568;2023-02-10T12:47:48;14.50;;;5.57;;
6282;SDS011;3174;53.486;9.568;2023-02-10T12:50:25;12.67;;;4.97;;
6282;SDS011;3174;53.486;9.568;2023-02-10T12:52:58;16.47;;;4.93;;
6282;SDS011;3174;53.486;9.568;2023-02-10T12:55:30;11.10;;;4.30;;
6282;SDS011;3174;53.486;9.568;2023-02-10T12:58:03;13.83;;;4.70;;
6282;SDS011;3174;53.486;9.568;2023-02-10T13:00:34;15.00;;;4.20;;
6282;SDS011;3174;53.486;9.568;2023-02-10T13:03:07;11.63;;;4.60;;
6282;SDS011;3174;53.486;9.568;2023-02-10T13:05:39;11.63;;;4.80;;
6282;SDS011;3174;53.486;9.568;2023-02-10T13:08:12;8.67;;;4.20;;
6282;SDS011;3174;53.486;9.568;2023-02-10T13:10:43;7.27;;;4.30;;
6282;SDS011;3174;53.486;9.568;2023-02-10T13:13:14;9.93;;;4.33;;
6282;SDS011;3174;53.486;9.568;2023-02-10T13:15:43;11.50;;;5.13;;
6282;SDS011;3174;53.486;9.568;2023-02-10T13:18:17;12.67;;;5.10;;
6282;SDS011;3174;53.486;9.568;2023-02-10T13:20:49;12.10;;;4.90;;
6282;SDS011;3174;53.486;9.568;2023-02-10T13:23:24;11.73;;;5.47;;
6282;SDS011;3174;53.486;9.568;2023-02-10T13:26:02;9.63;;;4.90;;
6282;SDS011;3174;53.486;9.568;2023-02-10T13:28:43;10.30;;;5.37;;
6282;SDS011;3174;53.486;9.568;2023-02-10T13:31:24;8.47;;;5.13;;
6282;SDS011;3174;53.486;9.568;2023-02-10T13:34:01;10.17;;;4.90;;
6282;SDS011;3174;53.486;9.568;2023-02-10T13:36:33;13.50;;;5.33;;
6282;SDS011;3174;53.486;9.568;2023-02-10T13:39:02;17.33;;;6.10;;
6282;SDS011;3174;53.486;9.568;2023-02-10T13:41:33;11.83;;;5.20;;
6282;SDS011;3174;53.486;9.568;2023-02-10T13:44:17;16.27;;;5.43;;
6282;SDS011;3174;53.486;9.568;2023-02-10T13:46:49;13.07;;;5.00;;
6282;SDS011;3174;53.486;9.568;2023-02-10T13:49:23;15.67;;;5.87;;
6282;SDS011;3174;53.486;9.568;2023-02-10T13:51:58;12.67;;;5.43;;
6282;SDS011;3174;53.486;9.568;2023-02-10T13:54:31;12.57;;;5.30;;
6282;SDS011;3174;53.486;9.568;2023-02-10T13:57:02;16.40;;;5.33;;
6282;SDS011;3174;53.486;9.568;2023-02-10T13:59:37;10.67;;;5.30;;
6282;SDS011;3174;53.486;9.568;2023-02-10T14:02:11;15.87;;;4.63;;
6282;SDS011;3174;53.486;9.568;2023-02-10T14:04:45;14.77;;;5.73;;
6282;SDS011;3174;53.486;9.568;2023-02-10T14:07:15;13.07;;;5.23;;
6282;SDS011;3174;53.486;9.568;2023-02-10T14:09:46;11.13;;;5.40;;
6282;SDS011;3174;53.486;9.568;2023-02-10T14:12:24;13.97;;;4.90;;
6282;SDS011;3174;53.486;9.568;2023-02-10T14:14:54;13.50;;;4.93;;
6282;SDS011;3174;53.486;9.568;2023-02-10T14:17:22;16.83;;;6.90;;
6282;SDS011;3174;53.486;9.568;2023-02-10T14:19:57;14.33;;;5.43;;
6282;SDS011;3174;53.486;9.568;2023-02-10T14:22:29;12.97;;;5.77;;
6282;SDS011;3174;53.486;9.568;2023-02-10T14:25:04;9.80;;;5.23;;
6282;SDS011;3174;53.486;9.568;2023-02-10T14:27:46;11.80;;;5.33;;
6282;SDS011;3174;53.486;9.568;2023-02-10T14:30:18;14.40;;;5.60;;
6282;SDS011;3174;53.486;9.568;2023-02-10T14:32:47;15.57;;;5.70;;
6282;SDS011;3174;53.486;9.568;2023-02-10T14:35:19;10.37;;;5.07;;
6282;SDS011;3174;53.486;9.568;2023-02-10T14:37:56;11.63;;;5.17;;
6282;SDS011;3174;53.486;9.568;2023-02-10T14:40:27;14.43;;;5.47;;
6282;SDS011;3174;53.486;9.568;2023-02-10T14:42:55;12.60;;;6.67;;
6282;SDS011;3174;53.486;9.568;2023-02-10T14:45:24;11.47;;;5.10;;
6282;SDS011;3174;53.486;9.568;2023-02-10T14:47:54;11.10;;;5.43;;
6282;SDS011;3174;53.486;9.568;2023-02-10T14:50:26;12.87;;;5.90;;
6282;SDS011;3174;53.486;9.568;2023-02-10T14:52:55;15.13;;;6.17;;
6282;SDS011;3174;53.486;9.568;2023-02-10T14:55:24;16.10;;;6.70;;
6282;SDS011;3174;53.486;9.568;2023-02-10T14:57:57;16.93;;;6.67;;
6282;SDS011;3174;53.486;9.568;2023-02-10T15:00:30;13.60;;;6.67;;
6282;SDS011;3174;53.486;9.568;2023-02-10T15:02:59;13.30;;;6.10;;
6282;SDS011;3174;53.486;9.568;2023-02-10T15:05:30;16.27;;;7.67;;
6282;SDS011;3174;53.486;9.568;2023-02-10T15:08:00;14.90;;;6.83;;
6282;SDS011;3174;53.486;9.568;2023-02-10T15:10:30;14.60;;;7.80;;
6282;SDS011;3174;53.486;9.568;2023-02-10T15:13:01;14.53;;;7.00;;
6282;SDS011;3174;53.486;9.568;2023-02-10T15:15:30;17.73;;;7.60;;
6282;SDS011;3174;53.486;9.568;2023-02-10T15:17:59;16.87;;;8.80;;
6282;SDS011;3174;53.486;9.568;2023-02-10T15:20:30;12.43;;;6.77;;
6282;SDS011;3174;53.486;9.568;2023-02-10T15:23:03;19.43;;;8.33;;
6282;SDS011;3174;53.486;9.568;2023-02-10T15:25:58;18.33;;;9.10;;
6282;SDS011;3174;53.486;9.568;2023-02-10T15:28:31;14.80;;;8.00;;